WSSS/SIN METAR and TAF weather

Enter ICAO airport designator
Station Type Date Time Source
WSSS METAR 2019/04/19 08:00 UTC NOAA

WSSS 190800Z 04009KT 020V130 5000 -TSRA FEW012 FEW015CB SCT017TCU 29/24 Q1006 TEMPO TL0845 TSRA BECMG FM0845 TL0900 NSW


Station Type Date Time Source
WSSS Decoded METAR 2019/04/19 08:00 UTC NOAA

Singapore / Changi Airport, Singapore (WSSS) 01-22N 103-59E 16M
Apr 19, 2019 - 04:00 AM EDT / 2019.04.19 0800 UTC
Wind: from the NE (040 degrees) at 10 MPH (9 KT) (direction variable):0
Visibility: 3 mile(s):0
Sky conditions: partly cloudy
Weather: light rain with thunder; Cumulonimbus clouds, towering cumulus clouds observed
Temperature: 84 F (29 C)
Dew Point: 75 F (24 C)
Relative Humidity: 74%
Pressure (altimeter): 29.71 in. Hg (1006 hPa)
ob: WSSS 190800Z 04009KT 020V130 5000 -TSRA FEW012 FEW015CB SCT017TCU 29/24 Q1006 TEMPO TL0845 TSRA BECMG FM0845 TL0900 NSW
cycle: 8

Station Type Date Time Source
WSSS TAF 2019/04/19 08:04 UTC NOAA

TAF
AMD WSSS 190800Z 1908/2012 03007KT 9999 FEW015 SCT020
TEMPO 1908/1910 3000 TSRA FEW012CB BKN015

Example: see airport list